sensor_id;sensor_type;location;lat;lon;timestamp;temperature;humidity
4520;DHT22;2272;49.226;8.108;2023-08-30T01:29:44;13.60;99.90
4520;DHT22;2272;49.226;8.108;2023-08-30T01:32:12;13.60;99.90
4520;DHT22;2272;49.226;8.108;2023-08-30T01:34:40;13.60;99.90
4520;DHT22;2272;49.226;8.108;2023-08-30T01:37:08;13.60;99.90
4520;DHT22;2272;49.226;8.108;2023-08-30T01:39:37;13.60;99.90
4520;DHT22;2272;49.226;8.108;2023-08-30T01:42:07;13.60;99.90
4520;DHT22;2272;49.226;8.108;2023-08-30T01:44:34;13.60;99.90
4520;DHT22;2272;49.226;8.108;2023-08-30T01:47:04;13.60;99.90
4520;DHT22;2272;49.226;8.108;2023-08-30T01:49:32;13.60;99.90
4520;DHT22;2272;49.226;8.108;2023-08-30T01:51:59;13.60;99.90
4520;DHT22;2272;49.226;8.108;2023-08-30T01:54:28;13.60;99.90
4520;DHT22;2272;49.226;8.108;2023-08-30T01:56:55;13.50;99.90
4520;DHT22;2272;49.226;8.108;2023-08-30T01:59:23;13.50;99.90
4520;DHT22;2272;49.226;8.108;2023-08-30T02:01:51;13.50;99.90
4520;DHT22;2272;49.226;8.108;2023-08-30T02:04:19;13.60;99.90
4520;DHT22;2272;49.226;8.108;2023-08-30T02:06:52;13.60;99.90
4520;DHT22;2272;49.226;8.108;2023-08-30T02:09:25;13.60;99.90
4520;DHT22;2272;49.226;8.108;2023-08-30T02:11:54;13.60;99.90
4520;DHT22;2272;49.226;8.108;2023-08-30T02:14:22;13.60;99.90
4520;DHT22;2272;49.226;8.108;2023-08-30T02:16:50;13.50;99.90
4520;DHT22;2272;49.226;8.108;2023-08-30T02:19:18;13.50;99.90
4520;DHT22;2272;49.226;8.108;2023-08-30T02:21:46;13.50;99.90
4520;DHT22;2272;49.226;8.108;2023-08-30T02:24:14;13.50;99.90
4520;DHT22;2272;49.226;8.108;2023-08-30T02:26:41;13.50;99.90
4520;DHT22;2272;49.226;8.108;2023-08-30T02:29:07;13.50;99.90
4520;DHT22;2272;49.226;8.108;2023-08-30T02:31:38;13.50;99.90
4520;DHT22;2272;49.226;8.108;2023-08-30T02:34:05;13.50;99.90
4520;DHT22;2272;49.226;8.108;2023-08-30T02:36:33;13.50;99.90
4520;DHT22;2272;49.226;8.108;2023-08-30T02:39:00;13.50;99.90
4520;DHT22;2272;49.226;8.108;2023-08-30T02:41:27;13.50;99.90
4520;DHT22;2272;49.226;8.108;2023-08-30T02:43:54;13.40;99.90
4520;DHT22;2272;49.226;8.108;2023-08-30T02:46:20;13.40;99.90
4520;DHT22;2272;49.226;8.108;2023-08-30T02:48:47;13.40;99.90
4520;DHT22;2272;49.226;8.108;2023-08-30T02:51:14;13.30;99.90
4520;DHT22;2272;49.226;8.108;2023-08-30T02:53:43;13.30;99.90
4520;DHT22;2272;49.226;8.108;2023-08-30T02:56:10;13.30;99.90
4520;DHT22;2272;49.226;8.108;2023-08-30T02:58:37;13.30;99.90
4520;DHT22;2272;49.226;8.108;2023-08-30T03:01:04;13.20;99.90
4520;DHT22;2272;49.226;8.108;2023-08-30T03:03:31;13.30;99.90
4520;DHT22;2272;49.226;8.108;2023-08-30T03:05:58;13.30;99.90
4520;DHT22;2272;49.226;8.108;2023-08-30T03:08:25;13.40;99.90
4520;DHT22;2272;49.226;8.108;2023-08-30T03:10:53;13.30;99.90
4520;DHT22;2272;49.226;8.108;2023-08-30T03:13:20;13.40;99.90
4520;DHT22;2272;49.226;8.108;2023-08-30T03:15:47;13.40;99.90
4520;DHT22;2272;49.226;8.108;2023-08-30T03:18:14;13.40;99.90
4520;DHT22;2272;49.226;8.108;2023-08-30T03:20:40;13.40;99.90
4520;DHT22;2272;49.226;8.108;2023-08-30T03:23:07;13.40;99.90
4520;DHT22;2272;49.226;8.108;2023-08-30T03:25:34;13.40;99.90
4520;DHT22;2272;49.226;8.108;2023-08-30T03:28:03;13.40;99.90
4520;DHT22;2272;49.226;8.108;2023-08-30T03:30:30;13.40;99.90
4520;DHT22;2272;49.226;8.108;2023-08-30T03:32:56;13.30;99.90
4520;DHT22;2272;49.226;8.108;2023-08-30T03:35:23;13.30;99.90
4520;DHT22;2272;49.226;8.108;2023-08-30T03:37:50;13.20;99.90
4520;DHT22;2272;49.226;8.108;2023-08-30T03:40:17;13.10;99.90
4520;DHT22;2272;49.226;8.108;2023-08-30T03:42:44;13.00;99.90
4520;DHT22;2272;49.226;8.108;2023-08-30T03:45:12;13.00;99.90
4520;DHT22;2272;49.226;8.108;2023-08-30T03:47:39;12.90;99.90
4520;DHT22;2272;49.226;8.108;2023-08-30T03:50:07;12.80;99.90
4520;DHT22;2272;49.226;8.108;2023-08-30T03:52:34;12.80;99.90
4520;DHT22;2272;49.226;8.108;2023-08-30T03:55:01;12.70;99.90
4520;DHT22;2272;49.226;8.108;2023-08-30T03:57:28;12.70;99.90
4520;DHT22;2272;49.226;8.108;2023-08-30T03:59:55;12.70;99.90
4520;DHT22;2272;49.226;8.108;2023-08-30T04:02:23;12.70;99.90
4520;DHT22;2272;49.226;8.108;2023-08-30T04:04:50;12.60;99.90
4520;DHT22;2272;49.226;8.108;2023-08-30T04:07:17;12.70;99.90
4520;DHT22;2272;49.226;8.108;2023-08-30T04:09:43;12.70;99.90
4520;DHT22;2272;49.226;8.108;2023-08-30T04:12:10;12.70;99.90
4520;DHT22;2272;49.226;8.108;2023-08-30T04:14:37;12.70;99.90
4520;DHT22;2272;49.226;8.108;2023-08-30T04:17:04;12.70;99.90
4520;DHT22;2272;49.226;8.108;2023-08-30T04:19:33;12.70;99.90
4520;DHT22;2272;49.226;8.108;2023-08-30T04:22:00;12.70;99.90
4520;DHT22;2272;49.226;8.108;2023-08-30T04:24:26;12.70;99.90
4520;DHT22;2272;49.226;8.108;2023-08-30T04:26:53;12.70;99.90
4520;DHT22;2272;49.226;8.108;2023-08-30T04:29:20;12.70;99.90
4520;DHT22;2272;49.226;8.108;2023-08-30T04:31:47;12.60;99.90
4520;DHT22;2272;49.226;8.108;2023-08-30T04:34:14;12.60;99.90
4520;DHT22;2272;49.226;8.108;2023-08-30T04:36:43;12.50;99.90
4520;DHT22;2272;49.226;8.108;2023-08-30T04:39:10;12.50;99.90
4520;DHT22;2272;49.226;8.108;2023-08-30T04:41:36;12.40;99.90
4520;DHT22;2272;49.226;8.108;2023-08-30T04:44:03;12.40;99.90
4520;DHT22;2272;49.226;8.108;2023-08-30T04:46:30;12.40;99.90
4520;DHT22;2272;49.226;8.108;2023-08-30T04:48:57;12.40;99.90
4520;DHT22;2272;49.226;8.108;2023-08-30T04:51:23;12.30;99.90
4520;DHT22;2272;49.226;8.108;2023-08-30T04:53:55;12.30;99.90
4520;DHT22;2272;49.226;8.108;2023-08-30T04:56:21;12.30;99.90
4520;DHT22;2272;49.226;8.108;2023-08-30T04:58:48;12.30;99.90
4520;DHT22;2272;49.226;8.108;2023-08-30T05:01:16;12.30;99.90
4520;DHT22;2272;49.226;8.108;2023-08-30T05:03:42;12.30;99.90
4520;DHT22;2272;49.226;8.108;2023-08-30T05:06:11;12.30;99.90
4520;DHT22;2272;49.226;8.108;2023-08-30T05:08:41;12.30;99.90
4520;DHT22;2272;49.226;8.108;2023-08-30T05:11:09;12.30;99.90
4520;DHT22;2272;49.226;8.108;2023-08-30T05:13:36;12.30;99.90
4520;DHT22;2272;49.226;8.108;2023-08-30T05:16:03;12.30;99.90
4520;DHT22;2272;49.226;8.108;2023-08-30T05:18:30;12.30;99.90
4520;DHT22;2272;49.226;8.108;2023-08-30T05:20:57;12.30;99.90
4520;DHT22;2272;49.226;8.108;2023-08-30T05:23:24;12.30;99.90
4520;DHT22;2272;49.226;8.108;2023-08-30T05:25:50;12.40;99.90
4520;DHT22;2272;49.226;8.108;2023-08-30T05:28:19;12.40;99.90
4520;DHT22;2272;49.226;8.108;2023-08-30T05:30:45;12.40;99.90
4520;DHT22;2272;49.226;8.108;2023-08-30T05:33:12;12.50;99.90
4520;DHT22;2272;49.226;8.108;2023-08-30T05:35:39;12.50;99.90
4520;DHT22;2272;49.226;8.108;2023-08-30T05:38:06;12.60;99.90
4520;DHT22;2272;49.226;8.108;2023-08-30T05:40:32;12.60;99.90
4520;DHT22;2272;49.226;8.108;2023-08-30T05:42:59;12.60;99.90
4520;DHT22;2272;49.226;8.108;2023-08-30T05:45:27;12.70;99.90
4520;DHT22;2272;49.226;8.108;2023-08-30T05:47:54;12.70;99.90
4520;DHT22;2272;49.226;8.108;2023-08-30T05:50:21;12.70;99.90
4520;DHT22;2272;49.226;8.108;2023-08-30T05:52:48;12.80;99.90
4520;DHT22;2272;49.226;8.108;2023-08-30T05:55:16;12.90;99.90
4520;DHT22;2272;49.226;8.108;2023-08-30T05:57:43;12.90;99.90
4520;DHT22;2272;49.226;8.108;2023-08-30T06:00:11;13.00;99.90
4520;DHT22;2272;49.226;8.108;2023-08-30T06:02:40;13.00;99.90
4520;DHT22;2272;49.226;8.108;2023-08-30T06:05:07;13.10;99.90
4520;DHT22;2272;49.226;8.108;2023-08-30T06:07:34;13.20;99.90
4520;DHT22;2272;49.226;8.108;2023-08-30T06:10:02;13.30;99.90
4520;DHT22;2272;49.226;8.108;2023-08-30T06:12:30;13.30;99.90
4520;DHT22;2272;49.226;8.108;2023-08-30T06:14:56;13.40;99.90
4520;DHT22;2272;49.226;8.108;2023-08-30T06:17:23;13.50;99.90
4520;DHT22;2272;49.226;8.108;2023-08-30T06:19:51;13.50;99.90
4520;DHT22;2272;49.226;8.108;2023-08-30T06:22:18;13.60;99.90
4520;DHT22;2272;49.226;8.108;2023-08-30T06:24:45;13.70;99.90
4520;DHT22;2272;49.226;8.108;2023-08-30T06:27:12;13.80;99.90
4520;DHT22;2272;49.226;8.108;2023-08-30T06:29:38;13.90;99.90
4520;DHT22;2272;49.226;8.108;2023-08-30T06:32:06;14.10;99.90
4520;DHT22;2272;49.226;8.108;2023-08-30T06:34:33;14.20;99.90
4520;DHT22;2272;49.226;8.108;2023-08-30T06:37:01;14.20;99.90
4520;DHT22;2272;49.226;8.108;2023-08-30T06:39:32;14.30;99.90
4520;DHT22;2272;49.226;8.108;2023-08-30T06:42:00;14.40;99.90
4520;DHT22;2272;49.226;8.108;2023-08-30T06:44:27;14.50;99.90
4520;DHT22;2272;49.226;8.108;2023-08-30T06:46:55;14.60;99.90
4520;DHT22;2272;49.226;8.108;2023-08-30T06:49:22;14.70;99.90
4520;DHT22;2272;49.226;8.108;2023-08-30T06:51:49;14.80;99.90
4520;DHT22;2272;49.226;8.108;2023-08-30T06:54:17;14.90;99.90
4520;DHT22;2272;49.226;8.108;2023-08-30T06:56:57;14.90;99.90
4520;DHT22;2272;49.226;8.108;2023-08-30T06:59:24;15.00;99.90
4520;DHT22;2272;49.226;8.108;2023-08-30T07:01:50;15.10;99.90
4520;DHT22;2272;49.226;8.108;2023-08-30T07:04:17;15.30;99.90
4520;DHT22;2272;49.226;8.108;2023-08-30T07:06:44;15.40;99.90
4520;DHT22;2272;49.226;8.108;2023-08-30T07:09:11;15.60;99.90
4520;DHT22;2272;49.226;8.108;2023-08-30T07:11:39;15.70;99.90
4520;DHT22;2272;49.226;8.108;2023-08-30T07:14:06;15.70;99.90
4520;DHT22;2272;49.226;8.108;2023-08-30T07:16:32;15.80;99.90
4520;DHT22;2272;49.226;8.108;2023-08-30T07:18:59;15.90;99.90
4520;DHT22;2272;49.226;8.108;2023-08-30T07:21:27;16.00;99.90
4520;DHT22;2272;49.226;8.108;2023-08-30T07:23:54;16.00;99.90
4520;DHT22;2272;49.226;8.108;2023-08-30T07:26:21;16.00;99.90
4520;DHT22;2272;49.226;8.108;2023-08-30T07:28:50;16.10;99.90
4520;DHT22;2272;49.226;8.108;2023-08-30T07:33:44;16.30;99.90
4520;DHT22;2272;49.226;8.108;2023-08-30T07:38:38;16.60;99.90
4520;DHT22;2272;49.226;8.108;2023-08-30T07:41:04;16.70;99.90
4520;DHT22;2272;49.226;8.108;2023-08-30T07:43:31;16.80;99.90
4520;DHT22;2272;49.226;8.108;2023-08-30T07:45:59;16.90;99.90
4520;DHT22;2272;49.226;8.108;2023-08-30T07:48:26;17.10;99.90
4520;DHT22;2272;49.226;8.108;2023-08-30T07:50:53;17.20;99.90
4520;DHT22;2272;49.226;8.108;2023-08-30T07:53:19;17.20;99.90
4520;DHT22;2272;49.226;8.108;2023-08-30T07:55:48;17.40;99.90
4520;DHT22;2272;49.226;8.108;2023-08-30T07:58:14;17.60;99.90
4520;DHT22;2272;49.226;8.108;2023-08-30T08:00:41;17.60;99.90
4520;DHT22;2272;49.226;8.108;2023-08-30T08:03:09;17.60;99.90
4520;DHT22;2272;49.226;8.108;2023-08-30T08:05:36;17.50;99.90
4520;DHT22;2272;49.226;8.108;2023-08-30T08:08:04;17.60;99.90
4520;DHT22;2272;49.226;8.108;2023-08-30T08:10:31;17.80;99.90
4520;DHT22;2272;49.226;8.108;2023-08-30T08:12:58;18.00;99.90
4520;DHT22;2272;49.226;8.108;2023-08-30T08:15:25;18.10;99.90
4520;DHT22;2272;49.226;8.108;2023-08-30T08:17:52;18.20;99.90
4520;DHT22;2272;49.226;8.108;2023-08-30T08:20:20;18.30;99.90
4520;DHT22;2272;49.226;8.108;2023-08-30T08:22:47;18.40;99.90
4520;DHT22;2272;49.226;8.108;2023-08-30T08:25:13;18.10;99.90
4520;DHT22;2272;49.226;8.108;2023-08-30T08:27:41;18.60;99.90
4520;DHT22;2272;49.226;8.108;2023-08-30T08:30:09;18.50;99.90
4520;DHT22;2272;49.226;8.108;2023-08-30T08:32:36;18.60;99.90
4520;DHT22;2272;49.226;8.108;2023-08-30T08:35:03;18.70;99.90
4520;DHT22;2272;49.226;8.108;2023-08-30T08:44:56;18.50;99.90
4520;DHT22;2272;49.226;8.108;2023-08-30T08:47:23;18.60;99.90
4520;DHT22;2272;49.226;8.108;2023-08-30T08:49:51;18.50;99.90
4520;DHT22;2272;49.226;8.108;2023-08-30T08:52:18;18.50;99.90
4520;DHT22;2272;49.226;8.108;2023-08-30T08:54:46;18.60;99.90
4520;DHT22;2272;49.226;8.108;2023-08-30T08:57:13;18.20;99.90
4520;DHT22;2272;49.226;8.108;2023-08-30T08:59:40;18.10;99.90
4520;DHT22;2272;49.226;8.108;2023-08-30T09:02:08;18.10;99.90
4520;DHT22;2272;49.226;8.108;2023-08-30T09:04:36;17.30;99.90
4520;DHT22;2272;49.226;8.108;2023-08-30T09:07:03;18.20;99.90
4520;DHT22;2272;49.226;8.108;2023-08-30T09:09:30;18.40;99.90
4520;DHT22;2272;49.226;8.108;2023-08-30T09:11:59;18.60;99.90
4520;DHT22;2272;49.226;8.108;2023-08-30T09:14:26;18.80;99.90
4520;DHT22;2272;49.226;8.108;2023-08-30T09:16:56;19.30;99.90
4520;DHT22;2272;49.226;8.108;2023-08-30T09:19:24;19.30;99.90
4520;DHT22;2272;49.226;8.108;2023-08-30T09:21:51;19.70;99.90
4520;DHT22;2272;49.226;8.108;2023-08-30T09:24:19;19.80;99.90
4520;DHT22;2272;49.226;8.108;2023-08-30T09:26:47;19.60;99.90
4520;DHT22;2272;49.226;8.108;2023-08-30T09:29:23;18.50;99.90
4520;DHT22;2272;49.226;8.108;2023-08-30T09:31:51;18.90;99.90
4520;DHT22;2272;49.226;8.108;2023-08-30T09:34:22;18.80;99.90
4520;DHT22;2272;49.226;8.108;2023-08-30T09:36:50;18.70;99.90
4520;DHT22;2272;49.226;8.108;2023-08-30T09:39:19;18.80;99.90
4520;DHT22;2272;49.226;8.108;2023-08-30T09:41:48;18.90;99.90
4520;DHT22;2272;49.226;8.108;2023-08-30T09:44:19;19.20;99.90
4520;DHT22;2272;49.226;8.108;2023-08-30T09:46:49;19.50;99.90
4520;DHT22;2272;49.226;8.108;2023-08-30T09:51:48;20.30;99.90
4520;DHT22;2272;49.226;8.108;2023-08-30T09:54:17;20.50;99.90
4520;DHT22;2272;49.226;8.108;2023-08-30T09:59:14;20.70;99.90
4520;DHT22;2272;49.226;8.108;2023-08-30T10:01:43;20.90;99.90
4520;DHT22;2272;49.226;8.108;2023-08-30T10:04:11;21.20;99.90
4520;DHT22;2272;49.226;8.108;2023-08-30T10:06:40;21.30;99.90
4520;DHT22;2272;49.226;8.108;2023-08-30T10:09:08;21.20;99.90
4520;DHT22;2272;49.226;8.108;2023-08-30T10:11:37;20.90;99.90
4520;DHT22;2272;49.226;8.108;2023-08-30T10:14:05;21.10;99.90
4520;DHT22;2272;49.226;8.108;2023-08-30T10:16:37;20.40;99.90
4520;DHT22;2272;49.226;8.108;2023-08-30T10:19:11;20.30;99.90
4520;DHT22;2272;49.226;8.108;2023-08-30T10:21:40;20.10;99.90
4520;DHT22;2272;49.226;8.108;2023-08-30T10:24:10;20.10;99.90
4520;DHT22;2272;49.226;8.108;2023-08-30T10:26:39;20.50;99.90
4520;DHT22;2272;49.226;8.108;2023-08-30T10:29:08;20.50;99.90
4520;DHT22;2272;49.226;8.108;2023-08-30T10:34:13;22.10;99.90
4520;DHT22;2272;49.226;8.108;2023-08-30T10:39:14;23.80;99.90
4520;DHT22;2272;49.226;8.108;2023-08-30T10:41:55;23.90;99.90
4520;DHT22;2272;49.226;8.108;2023-08-30T10:44:22;23.90;99.90
4520;DHT22;2272;49.226;8.108;2023-08-30T10:46:52;24.30;99.90
4520;DHT22;2272;49.226;8.108;2023-08-30T10:49:21;23.90;99.90
4520;DHT22;2272;49.226;8.108;2023-08-30T10:51:55;24.30;99.90
4520;DHT22;2272;49.226;8.108;2023-08-30T10:54:23;24.50;99.90
4520;DHT22;2272;49.226;8.108;2023-08-30T10:56:55;24.50;99.90
4520;DHT22;2272;49.226;8.108;2023-08-30T10:59:24;24.20;99.90
4520;DHT22;2272;49.226;8.108;2023-08-30T11:01:52;24.70;99.90
4520;DHT22;2272;49.226;8.108;2023-08-30T11:06:50;23.90;99.90
4520;DHT22;2272;49.226;8.108;2023-08-30T11:09:18;25.20;99.90
4520;DHT22;2272;49.226;8.108;2023-08-30T11:11:46;25.40;99.90
4520;DHT22;2272;49.226;8.108;2023-08-30T11:14:14;25.70;99.90
4520;DHT22;2272;49.226;8.108;2023-08-30T11:16:42;25.70;99.90
4520;DHT22;2272;49.226;8.108;2023-08-30T11:19:10;25.60;99.90
4520;DHT22;2272;49.226;8.108;2023-08-30T11:21:39;25.60;99.90
4520;DHT22;2272;49.226;8.108;2023-08-30T11:24:08;25.70;99.90
4520;DHT22;2272;49.226;8.108;2023-08-30T11:26:35;25.90;99.90
4520;DHT22;2272;49.226;8.108;2023-08-30T11:29:05;25.90;99.90
4520;DHT22;2272;49.226;8.108;2023-08-30T11:31:32;25.30;99.90
4520;DHT22;2272;49.226;8.108;2023-08-30T11:34:00;24.90;99.90
4520;DHT22;2272;49.226;8.108;2023-08-30T11:36:30;24.60;99.90
4520;DHT22;2272;49.226;8.108;2023-08-30T11:38:58;24.60;99.90
4520;DHT22;2272;49.226;8.108;2023-08-30T11:41:26;24.20;99.90
4520;DHT22;2272;49.226;8.108;2023-08-30T11:43:54;23.70;99.90
4520;DHT22;2272;49.226;8.108;2023-08-30T11:46:21;23.50;99.90
4520;DHT22;2272;49.226;8.108;2023-08-30T11:48:50;23.30;99.90
4520;DHT22;2272;49.226;8.108;2023-08-30T11:51:18;23.30;99.90
4520;DHT22;2272;49.226;8.108;2023-08-30T11:53:46;23.30;99.90
4520;DHT22;2272;49.226;8.108;2023-08-30T11:56:15;23.30;99.90
4520;DHT22;2272;49.226;8.108;2023-08-30T11:58:43;23.40;99.90
4520;DHT22;2272;49.226;8.108;2023-08-30T12:01:11;23.30;99.90
4520;DHT22;2272;49.226;8.108;2023-08-30T12:03:40;23.30;99.90
4520;DHT22;2272;49.226;8.108;2023-08-30T12:06:10;23.60;99.90
4520;DHT22;2272;49.226;8.108;2023-08-30T12:08:37;24.20;99.90
4520;DHT22;2272;49.226;8.108;2023-08-30T12:11:03;24.70;99.90
4520;DHT22;2272;49.226;8.108;2023-08-30T12:13:32;24.60;99.90
4520;DHT22;2272;49.226;8.108;2023-08-30T12:16:02;25.30;99.90
4520;DHT22;2272;49.226;8.108;2023-08-30T12:18:31;24.90;99.90
4520;DHT22;2272;49.226;8.108;2023-08-30T12:21:00;24.50;99.90
4520;DHT22;2272;49.226;8.108;2023-08-30T12:23:28;24.20;99.90
4520;DHT22;2272;49.226;8.108;2023-08-30T12:25:59;23.80;99.90
4520;DHT22;2272;49.226;8.108;2023-08-30T12:28:26;23.60;99.90
4520;DHT22;2272;49.226;8.108;2023-08-30T12:30:53;23.10;99.90
4520;DHT22;2272;49.226;8.108;2023-08-30T12:33:22;22.80;99.90
4520;DHT22;2272;49.226;8.108;2023-08-30T12:35:50;22.90;99.90
4520;DHT22;2272;49.226;8.108;2023-08-30T12:38:17;23.10;99.90
4520;DHT22;2272;49.226;8.108;2023-08-30T12:40:45;23.20;99.90
4520;DHT22;2272;49.226;8.108;2023-08-30T12:43:12;23.00;99.90
4520;DHT22;2272;49.226;8.108;2023-08-30T12:45:39;22.90;99.90
4520;DHT22;2272;49.226;8.108;2023-08-30T12:48:06;21.30;99.90
4520;DHT22;2272;49.226;8.108;2023-08-30T12:50:35;23.20;99.90
4520;DHT22;2272;49.226;8.108;2023-08-30T12:53:02;24.40;99.90
4520;DHT22;2272;49.226;8.108;2023-08-30T12:55:29;23.60;99.90
4520;DHT22;2272;49.226;8.108;2023-08-30T12:57:57;23.50;99.90
4520;DHT22;2272;49.226;8.108;2023-08-30T13:00:24;23.60;99.90
4520;DHT22;2272;49.226;8.108;2023-08-30T13:02:51;23.60;99.90
4520;DHT22;2272;49.226;8.108;2023-08-30T13:05:18;23.20;99.90
4520;DHT22;2272;49.226;8.108;2023-08-30T13:07:48;23.50;99.90
4520;DHT22;2272;49.226;8.108;2023-08-30T13:10:15;23.60;99.90
4520;DHT22;2272;49.226;8.108;2023-08-30T13:12:42;23.80;99.90
4520;DHT22;2272;49.226;8.108;2023-08-30T13:15:10;23.90;99.90
4520;DHT22;2272;49.226;8.108;2023-08-30T13:17:36;24.10;99.90
4520;DHT22;2272;49.226;8.108;2023-08-30T13:20:04;23.60;99.90
4520;DHT22;2272;49.226;8.108;2023-08-30T13:22:31;24.20;99.90
4520;DHT22;2272;49.226;8.108;2023-08-30T13:24:59;24.00;99.90
4520;DHT22;2272;49.226;8.108;2023-08-30T13:27:26;23.90;99.90
4520;DHT22;2272;49.226;8.108;2023-08-30T13:29:52;23.90;99.90
4520;DHT22;2272;49.226;8.108;2023-08-30T13:32:19;24.00;99.90
4520;DHT22;2272;49.226;8.108;2023-08-30T13:34:46;24.10;99.90
4520;DHT22;2272;49.226;8.108;2023-08-30T13:37:13;24.10;99.90
4520;DHT22;2272;49.226;8.108;2023-08-30T13:39:39;24.30;99.90
4520;DHT22;2272;49.226;8.108;2023-08-30T13:42:08;24.50;99.90
4520;DHT22;2272;49.226;8.108;2023-08-30T13:44:35;24.20;99.90
4520;DHT22;2272;49.226;8.108;2023-08-30T13:47:03;24.20;99.90
4520;DHT22;2272;49.226;8.108;2023-08-30T13:49:30;24.30;99.90
4520;DHT22;2272;49.226;8.108;2023-08-30T13:51:56;24.40;99.90
4520;DHT22;2272;49.226;8.108;2023-08-30T13:54:23;24.40;99.90
4520;DHT22;2272;49.226;8.108;2023-08-30T13:56:50;24.30;99.90
4520;DHT22;2272;49.226;8.108;2023-08-30T13:59:18;24.10;99.90
4520;DHT22;2272;49.226;8.108;2023-08-30T14:01:45;23.90;99.90
4520;DHT22;2272;49.226;8.108;2023-08-30T14:04:12;23.80;99.90
4520;DHT22;2272;49.226;8.108;2023-08-30T14:06:39;23.60;99.90
4520;DHT22;2272;49.226;8.108;2023-08-30T14:09:06;23.50;99.90
4520;DHT22;2272;49.226;8.108;2023-08-30T14:11:33;23.20;99.90
4520;DHT22;2272;49.226;8.108;2023-08-30T14:14:01;23.30;99.90
4520;DHT22;2272;49.226;8.108;2023-08-30T14:16:29;23.40;99.90
4520;DHT22;2272;49.226;8.108;2023-08-30T14:18:56;23.40;99.90
4520;DHT22;2272;49.226;8.108;2023-08-30T14:21:25;23.40;99.90
4520;DHT22;2272;49.226;8.108;2023-08-30T14:23:52;23.30;99.90
4520;DHT22;2272;49.226;8.108;2023-08-30T14:26:19;23.10;99.90
4520;DHT22;2272;49.226;8.108;2023-08-30T14:28:46;23.00;99.90
4520;DHT22;2272;49.226;8.108;2023-08-30T14:31:13;23.40;99.90
4520;DHT22;2272;49.226;8.108;2023-08-30T14:33:44;23.10;99.90
4520;DHT22;2272;49.226;8.108;2023-08-30T14:36:11;23.20;99.90
4520;DHT22;2272;49.226;8.108;2023-08-30T14:38:38;23.20;99.90
4520;DHT22;2272;49.226;8.108;2023-08-30T14:41:06;23.30;99.90
4520;DHT22;2272;49.226;8.108;2023-08-30T14:43:33;23.30;99.90
4520;DHT22;2272;49.226;8.108;2023-08-30T14:46:05;23.60;99.90
4520;DHT22;2272;49.226;8.108;2023-08-30T14:48:32;23.80;99.90
4520;DHT22;2272;49.226;8.108;2023-08-30T14:51:01;23.70;99.90
4520;DHT22;2272;49.226;8.108;2023-08-30T14:53:29;23.60;99.90
4520;DHT22;2272;49.226;8.108;2023-08-30T14:55:55;23.60;99.90
4520;DHT22;2272;49.226;8.108;2023-08-30T14:58:24;23.70;99.90
4520;DHT22;2272;49.226;8.108;2023-08-30T15:00:51;23.90;99.90
4520;DHT22;2272;49.226;8.108;2023-08-30T15:03:18;23.90;99.90
4520;DHT22;2272;49.226;8.108;2023-08-30T15:05:52;24.00;99.90
4520;DHT22;2272;49.226;8.108;2023-08-30T15:08:22;23.60;99.90
4520;DHT22;2272;49.226;8.108;2023-08-30T15:10:49;23.00;99.90
4520;DHT22;2272;49.226;8.108;2023-08-30T15:13:16;22.60;99.90
4520;DHT22;2272;49.226;8.108;2023-08-30T15:15:43;22.40;99.90
4520;DHT22;2272;49.226;8.108;2023-08-30T15:18:14;22.20;99.90
4520;DHT22;2272;49.226;8.108;2023-08-30T15:20:43;22.30;99.90
4520;DHT22;2272;49.226;8.108;2023-08-30T15:23:16;22.50;99.90
4520;DHT22;2272;49.226;8.108;2023-08-30T15:25:47;22.80;99.90
4520;DHT22;2272;49.226;8.108;2023-08-30T15:28:20;22.90;99.90
4520;DHT22;2272;49.226;8.108;2023-08-30T15:30:50;22.00;99.90
4520;DHT22;2272;49.226;8.108;2023-08-30T15:33:18;23.20;99.90
4520;DHT22;2272;49.226;8.108;2023-08-30T15:35:44;23.00;99.90
4520;DHT22;2272;49.226;8.108;2023-08-30T15:38:16;22.90;99.90
4520;DHT22;2272;49.226;8.108;2023-08-30T15:40:53;22.30;99.90
4520;DHT22;2272;49.226;8.108;2023-08-30T15:43:28;22.70;99.90
4520;DHT22;2272;49.226;8.108;2023-08-30T15:45:56;23.00;99.90
4520;DHT22;2272;49.226;8.108;2023-08-30T15:48:24;22.60;99.90
4520;DHT22;2272;49.226;8.108;2023-08-30T15:50:51;22.70;99.90
4520;DHT22;2272;49.226;8.108;2023-08-30T15:53:18;22.90;99.90
4520;DHT22;2272;49.226;8.108;2023-08-30T15:55:47;22.90;99.90
4520;DHT22;2272;49.226;8.108;2023-08-30T15:58:15;23.00;99.90
4520;DHT22;2272;49.226;8.108;2023-08-30T16:00:42;23.00;99.90
4520;DHT22;2272;49.226;8.108;2023-08-30T16:03:10;22.90;99.90
4520;DHT22;2272;49.226;8.108;2023-08-30T16:05:37;22.70;99.90
4520;DHT22;2272;49.226;8.108;2023-08-30T16:08:07;22.70;99.90
4520;DHT22;2272;49.226;8.108;2023-08-30T16:10:34;22.50;99.90
4520;DHT22;2272;49.226;8.108;2023-08-30T16:13:02;22.40;99.90
4520;DHT22;2272;49.226;8.108;2023-08-30T16:15:29;22.20;99.90
4520;DHT22;2272;49.226;8.108;2023-08-30T16:17:58;22.10;99.90
4520;DHT22;2272;49.226;8.108;2023-08-30T16:20:24;22.10;99.90
4520;DHT22;2272;49.226;8.108;2023-08-30T16:22:52;21.90;99.90
4520;DHT22;2272;49.226;8.108;2023-08-30T16:25:19;21.70;99.90
4520;DHT22;2272;49.226;8.108;2023-08-30T16:27:46;21.40;99.90
4520;DHT22;2272;49.226;8.108;2023-08-30T16:30:15;21.10;99.90
4520;DHT22;2272;49.226;8.108;2023-08-30T16:32:44;20.90;99.90
4520;DHT22;2272;49.226;8.108;2023-08-30T16:35:11;20.80;99.90
4520;DHT22;2272;49.226;8.108;2023-08-30T16:37:40;21.00;99.90
4520;DHT22;2272;49.226;8.108;2023-08-30T16:40:08;21.30;99.90
4520;DHT22;2272;49.226;8.108;2023-08-30T16:42:37;21.50;99.90
4520;DHT22;2272;49.226;8.108;2023-08-30T16:45:10;21.80;99.90
4520;DHT22;2272;49.226;8.108;2023-08-30T16:47:44;22.10;99.90
4520;DHT22;2272;49.226;8.108;2023-08-30T16:50:11;22.50;99.90
4520;DHT22;2272;49.226;8.108;2023-08-30T16:52:38;22.70;99.90
4520;DHT22;2272;49.226;8.108;2023-08-30T16:55:08;22.80;99.90
4520;DHT22;2272;49.226;8.108;2023-08-30T16:57:34;22.90;99.90
4520;DHT22;2272;49.226;8.108;2023-08-30T17:00:01;22.80;99.90
4520;DHT22;2272;49.226;8.108;2023-08-30T17:02:30;22.70;99.90
4520;DHT22;2272;49.226;8.108;2023-08-30T17:04:58;22.50;99.90
4520;DHT22;2272;49.226;8.108;2023-08-30T17:07:25;22.20;99.90
4520;DHT22;2272;49.226;8.108;2023-08-30T17:09:52;21.60;99.90
4520;DHT22;2272;49.226;8.108;2023-08-30T17:12:19;21.20;99.90
4520;DHT22;2272;49.226;8.108;2023-08-30T17:14:45;20.80;99.90
4520;DHT22;2272;49.226;8.108;2023-08-30T17:17:12;20.40;99.90
4520;DHT22;2272;49.226;8.108;2023-08-30T17:19:40;20.10;99.90
4520;DHT22;2272;49.226;8.108;2023-08-30T17:22:10;19.90;99.90
4520;DHT22;2272;49.226;8.108;2023-08-30T17:24:37;19.70;99.90
4520;DHT22;2272;49.226;8.108;2023-08-30T17:27:04;19.50;99.90
4520;DHT22;2272;49.226;8.108;2023-08-30T17:29:31;19.40;99.90
4520;DHT22;2272;49.226;8.108;2023-08-30T17:31:58;19.30;99.90
4520;DHT22;2272;49.226;8.108;2023-08-30T17:34:25;19.30;99.90
4520;DHT22;2272;49.226;8.108;2023-08-30T17:36:55;19.20;99.90
4520;DHT22;2272;49.226;8.108;2023-08-30T17:39:26;19.10;99.90
4520;DHT22;2272;49.226;8.108;2023-08-30T17:41:54;19.00;99.90
4520;DHT22;2272;49.226;8.108;2023-08-30T17:44:21;18.90;99.90
4520;DHT22;2272;49.226;8.108;2023-08-30T17:51:47;18.40;99.90
4520;DHT22;2272;49.226;8.108;2023-08-30T17:56:44;18.30;99.90
4520;DHT22;2272;49.226;8.108;2023-08-30T18:01:38;16.80;99.90
4520;DHT22;2272;49.226;8.108;2023-08-30T18:04:05;16.50;99.90
4520;DHT22;2272;49.226;8.108;2023-08-30T18:06:32;15.80;99.90
4520;DHT22;2272;49.226;8.108;2023-08-30T18:08:59;15.30;99.90